createdAt,value
2018-08-10T00:00:28.362Z,22.48
2018-08-10T00:02:57.220Z,22.19
2018-08-10T00:05:26.038Z,22.14
2018-08-10T00:07:54.794Z,22.13
2018-08-10T00:10:24.042Z,22.09
2018-08-10T00:12:53.142Z,22.03
2018-08-10T00:15:22.193Z,21.91
2018-08-10T00:17:51.222Z,21.99
2018-08-10T00:20:20.590Z,21.93
2018-08-10T00:22:49.604Z,22.05
2018-08-10T00:25:18.911Z,21.94
2018-08-10T00:27:48.326Z,22.05
2018-08-10T00:30:18.739Z,22.00
2018-08-10T00:32:49.920Z,21.98
2018-08-10T00:35:18.633Z,21.90
2018-08-10T00:37:48.904Z,21.70
2018-08-10T00:40:21.106Z,21.62
2018-08-10T00:42:50.264Z,21.30
2018-08-10T00:45:19.774Z,21.32
2018-08-10T00:47:49.028Z,21.09
2018-08-10T00:50:19.190Z,20.79
2018-08-10T00:52:48.947Z,20.75
2018-08-10T00:55:19.650Z,21.06
2018-08-10T00:57:49.184Z,20.80
2018-08-10T01:00:21.994Z,20.62
2018-08-10T01:02:51.310Z,20.23
2018-08-10T01:05:19.958Z,20.02
2018-08-10T01:07:49.046Z,20.22
2018-08-10T01:10:19.752Z,19.96
2018-08-10T01:12:48.799Z,20.08
2018-08-10T01:15:18.275Z,19.89
2018-08-10T01:17:48.003Z,20.05
2018-08-10T01:20:24.332Z,20.15
2018-08-10T01:22:58.535Z,20.09
2018-08-10T01:25:28.149Z,19.85
2018-08-10T01:28:01.204Z,19.83
2018-08-10T01:30:31.057Z,19.88
2018-08-10T01:33:00.343Z,19.81
2018-08-10T01:35:29.603Z,19.79
2018-08-10T01:38:00.154Z,19.89
2018-08-10T01:40:29.081Z,19.92
2018-08-10T01:42:58.255Z,19.81
2018-08-10T01:45:26.978Z,19.88
2018-08-10T01:47:56.228Z,19.90
2018-08-10T01:50:25.063Z,19.85
2018-08-10T01:52:53.929Z,19.81
2018-08-10T01:55:23.355Z,19.84
2018-08-10T01:57:52.329Z,19.74
2018-08-10T02:00:21.059Z,19.62
2018-08-10T02:02:50.107Z,19.60
2018-08-10T02:05:18.905Z,19.72
2018-08-10T02:07:47.915Z,19.54
2018-08-10T02:10:18.569Z,19.42
2018-08-10T02:12:53.423Z,19.24
2018-08-10T02:15:22.491Z,19.29
2018-08-10T02:17:51.263Z,19.35
2018-08-10T02:20:21.616Z,19.50
2018-08-10T02:22:50.282Z,19.16
2018-08-10T02:25:20.486Z,18.95
2018-08-10T02:27:50.310Z,19.22
2018-08-10T02:30:20.664Z,19.11
2018-08-10T02:32:49.963Z,18.88
2018-08-10T02:35:18.624Z,18.95
2018-08-10T02:37:47.950Z,18.83
2018-08-10T02:40:19.226Z,18.55
2018-08-10T02:42:49.203Z,18.69
2018-08-10T02:45:18.476Z,18.88
2018-08-10T02:47:48.190Z,18.62
2018-08-10T02:50:17.700Z,18.55
2018-08-10T02:52:46.806Z,18.80
2018-08-10T02:55:15.922Z,18.64
2018-08-10T02:57:45.413Z,18.50
2018-08-10T03:00:15.303Z,18.22
2018-08-10T03:02:44.588Z,18.37
2018-08-10T03:05:13.689Z,18.22
2018-08-10T03:07:42.913Z,18.12
2018-08-10T03:10:13.044Z,18.01
2018-08-10T03:12:41.928Z,18.19
2018-08-10T03:15:13.818Z,18.00
2018-08-10T03:17:43.404Z,17.90
2018-08-10T03:20:12.596Z,18.15
2018-08-10T03:22:42.510Z,18.26
2018-08-10T03:25:12.947Z,18.31
2018-08-10T03:27:41.821Z,18.18
2018-08-10T03:30:11.992Z,18.29
2018-08-10T03:32:40.679Z,18.38
2018-08-10T03:35:09.428Z,18.29
2018-08-10T03:37:39.249Z,18.37
2018-08-10T03:40:11.143Z,18.25
2018-08-10T03:42:40.403Z,18.20
2018-08-10T03:45:09.503Z,18.03
2018-08-10T03:47:38.806Z,17.91
2018-08-10T03:50:09.386Z,17.83
2018-08-10T03:52:38.506Z,17.71
2018-08-10T03:55:07.664Z,17.86
2018-08-10T03:57:37.142Z,17.97
2018-08-10T04:00:07.639Z,18.09
2018-08-10T04:02:36.315Z,18.16
2018-08-10T04:05:05.675Z,18.27
2018-08-10T04:07:34.740Z,18.36
2018-08-10T04:10:03.783Z,18.33
2018-08-10T04:12:33.050Z,18.47
2018-08-10T04:15:02.191Z,18.55
2018-08-10T04:17:31.371Z,18.59
2018-08-10T04:20:00.641Z,18.57
2018-08-10T04:22:29.300Z,18.69
2018-08-10T04:24:58.531Z,18.55
2018-08-10T04:27:27.248Z,18.72
2018-08-10T04:29:56.088Z,18.83
2018-08-10T04:32:24.840Z,18.91
2018-08-10T04:34:53.951Z,19.03
2018-08-10T04:37:23.034Z,18.94
2018-08-10T04:39:52.225Z,18.96
2018-08-10T04:42:20.955Z,19.25
2018-08-10T04:44:49.783Z,19.76
2018-08-10T04:47:18.973Z,19.76
2018-08-10T04:49:48.474Z,19.48
2018-08-10T04:52:17.650Z,19.51
2018-08-10T04:54:46.719Z,19.76
2018-08-10T04:57:15.767Z,20.02
2018-08-10T04:59:44.563Z,20.04
2018-08-10T05:02:13.479Z,20.18
2018-08-10T05:04:42.781Z,20.30
2018-08-10T05:07:11.863Z,20.39
2018-08-10T05:09:40.737Z,20.44
2018-08-10T05:12:10.255Z,20.51
2018-08-10T05:14:39.518Z,20.11
2018-08-10T05:17:08.426Z,20.69
2018-08-10T05:19:37.942Z,20.59
2018-08-10T05:22:07.120Z,20.62
2018-08-10T05:24:36.225Z,20.89
2018-08-10T05:27:04.955Z,21.02
2018-08-10T05:29:34.241Z,21.12
2018-08-10T05:32:03.839Z,21.38
2018-08-10T05:34:32.798Z,21.51
2018-08-10T05:37:02.262Z,21.73
2018-08-10T05:39:31.402Z,21.92
2018-08-10T05:42:00.396Z,21.91
2018-08-10T05:44:29.745Z,22.02
2018-08-10T05:46:58.823Z,22.09
2018-08-10T05:49:27.912Z,22.26
2018-08-10T05:51:57.331Z,22.40
2018-08-10T05:54:26.446Z,22.50
2018-08-10T05:56:55.069Z,22.61
2018-08-10T05:59:24.187Z,22.81
2018-08-10T06:01:52.931Z,22.96
2018-08-10T06:04:21.971Z,23.06
2018-08-10T06:06:51.296Z,23.24
2018-08-10T06:09:20.172Z,23.23
2018-08-10T06:11:48.914Z,23.43
2018-08-10T06:14:17.849Z,23.42
2018-08-10T06:16:47.000Z,23.47
2018-08-10T06:19:15.940Z,23.65
2018-08-10T06:21:45.452Z,23.78
2018-08-10T06:24:14.611Z,24.06
2018-08-10T06:26:43.589Z,24.24
2018-08-10T06:29:13.008Z,24.27
2018-08-10T06:31:41.846Z,24.11
2018-08-10T06:34:10.569Z,24.17
2018-08-10T06:36:39.530Z,24.14
2018-08-10T06:39:09.938Z,24.41
2018-08-10T06:41:39.267Z,24.47
2018-08-10T06:44:08.876Z,24.63
2018-08-10T06:46:38.092Z,24.47
2018-08-10T06:49:07.147Z,24.65
2018-08-10T06:51:36.576Z,24.71
2018-08-10T06:54:05.316Z,24.60
2018-08-10T06:56:34.141Z,24.73
2018-08-10T06:59:02.868Z,24.85
2018-08-10T07:01:31.716Z,24.90
2018-08-10T07:04:00.654Z,25.03
2018-08-10T07:06:29.827Z,25.43
2018-08-10T07:09:30.578Z,25.33
2018-08-10T07:12:00.015Z,25.53
2018-08-10T07:14:28.826Z,25.53
2018-08-10T07:16:57.694Z,25.53
2018-08-10T07:19:26.633Z,25.50
2018-08-10T07:21:55.370Z,25.83
2018-08-10T07:24:24.404Z,25.71
2018-08-10T07:26:53.312Z,25.88
2018-08-10T07:29:21.972Z,25.93
2018-08-10T07:31:50.938Z,26.04
2018-08-10T07:34:19.982Z,26.07
2018-08-10T07:36:48.883Z,26.25
2018-08-10T07:39:17.545Z,26.32
2018-08-10T07:41:46.285Z,26.45
2018-08-10T07:44:15.025Z,26.33
2018-08-10T07:46:43.805Z,26.52
2018-08-10T07:49:13.039Z,26.53
2018-08-10T07:51:42.102Z,26.58
2018-08-10T07:54:10.890Z,26.69
2018-08-10T07:56:39.884Z,26.77
2018-08-10T07:59:08.923Z,26.93
2018-08-10T08:01:37.989Z,26.72
2018-08-10T08:04:07.819Z,26.84
2018-08-10T08:06:36.918Z,27.15
2018-08-10T08:09:08.922Z,27.16
2018-08-10T08:11:38.149Z,27.11
2018-08-10T08:14:06.954Z,27.08
2018-08-10T08:16:42.752Z,27.31
2018-08-10T08:19:11.934Z,27.28
2018-08-10T08:22:16.126Z,27.30
2018-08-10T08:24:45.155Z,27.33
2018-08-10T08:27:15.427Z,27.44
2018-08-10T08:29:44.478Z,27.39
2018-08-10T08:32:13.658Z,27.48
2018-08-10T08:34:42.718Z,27.75
2018-08-10T08:37:12.212Z,27.70
2018-08-10T08:40:51.684Z,27.82
2018-08-10T08:43:39.105Z,28.04
2018-08-10T08:46:12.114Z,27.98
2018-08-10T08:48:44.755Z,27.89
2018-08-10T08:51:30.076Z,28.26
2018-08-10T08:54:10.028Z,28.30
2018-08-10T08:56:44.001Z,28.50
2018-08-10T08:59:13.102Z,28.75
2018-08-10T09:01:42.001Z,28.97
2018-08-10T09:05:05.734Z,28.79
2018-08-10T09:07:35.136Z,29.22
2018-08-10T09:10:06.618Z,29.28
2018-08-10T09:12:35.627Z,29.29
2018-08-10T09:15:07.739Z,29.54
2018-08-10T09:17:36.516Z,29.44
2018-08-10T09:20:06.734Z,29.59
2018-08-10T09:22:36.295Z,29.61
2018-08-10T09:25:08.010Z,29.51
2018-08-10T09:27:37.114Z,29.83
2018-08-10T09:30:08.823Z,29.72
2018-08-10T09:32:38.134Z,29.72
2018-08-10T09:35:08.196Z,29.86
2018-08-10T09:37:37.428Z,30.02
2018-08-10T09:40:10.532Z,30.12
2018-08-10T09:42:39.310Z,30.24
2018-08-10T09:45:09.171Z,30.26
2018-08-10T09:47:38.650Z,30.28
2018-08-10T09:50:09.224Z,30.32
2018-08-10T09:52:37.995Z,30.33
2018-08-10T09:55:28.519Z,30.58
2018-08-10T09:58:04.449Z,30.46
2018-08-10T10:00:38.867Z,30.84
2018-08-10T10:03:13.859Z,30.81
2018-08-10T10:05:43.559Z,31.04
2018-08-10T10:08:12.993Z,31.20
2018-08-10T10:10:42.083Z,31.40
2018-08-10T10:13:11.422Z,31.66
2018-08-10T10:15:40.427Z,31.85
2018-08-10T10:18:10.760Z,31.76
2018-08-10T10:20:39.907Z,31.56
2018-08-10T10:23:08.693Z,31.99
2018-08-10T10:25:37.300Z,31.78
2018-08-10T10:28:06.601Z,31.75
2018-08-10T10:30:35.596Z,32.08
2018-08-10T10:33:04.683Z,32.07
2018-08-10T10:35:33.906Z,31.77
2018-08-10T10:38:02.944Z,31.70
2018-08-10T10:40:31.694Z,32.13
2018-08-10T10:43:00.882Z,31.86
2018-08-10T10:45:29.792Z,32.09
2018-08-10T10:47:58.839Z,32.48
2018-08-10T10:50:27.868Z,32.69
2018-08-10T10:52:56.970Z,32.83
2018-08-10T10:55:25.758Z,32.54
2018-08-10T10:57:54.891Z,32.12
2018-08-10T11:00:23.678Z,32.50
2018-08-10T11:02:52.805Z,32.99
2018-08-10T11:05:22.136Z,32.69
2018-08-10T11:07:50.840Z,32.49
2018-08-10T11:10:20.302Z,33.01
2018-08-10T11:12:49.427Z,33.46
2018-08-10T11:15:18.323Z,33.42
2018-08-10T11:17:47.258Z,33.55
2018-08-10T11:20:16.480Z,33.96
2018-08-10T11:22:45.395Z,34.11
2018-08-10T11:25:15.123Z,34.00
2018-08-10T11:27:44.914Z,34.14
2018-08-10T11:30:14.134Z,34.36
2018-08-10T11:32:43.250Z,34.39
2018-08-10T11:35:12.723Z,34.27
2018-08-10T11:37:41.497Z,33.94
2018-08-10T11:40:13.357Z,34.26
2018-08-10T11:42:43.056Z,34.24
2018-08-10T11:45:14.658Z,34.49
2018-08-10T11:47:43.767Z,34.39
2018-08-10T11:50:12.833Z,34.57
2018-08-10T11:52:41.942Z,34.42
2018-08-10T11:55:12.404Z,33.89
2018-08-10T11:57:41.635Z,34.10
2018-08-10T12:00:12.637Z,34.47
2018-08-10T12:02:41.706Z,34.26
2018-08-10T12:05:12.345Z,34.35
2018-08-10T12:07:42.086Z,33.99
2018-08-10T12:10:11.093Z,33.91
2018-08-10T12:12:40.137Z,34.26
2018-08-10T12:15:11.105Z,34.38
2018-08-10T12:17:39.932Z,34.62
2018-08-10T12:20:09.188Z,34.90
2018-08-10T12:22:38.350Z,35.35
2018-08-10T12:25:07.070Z,35.27
2018-08-10T12:27:36.213Z,35.43
2018-08-10T12:30:06.244Z,35.48
2018-08-10T12:32:35.540Z,34.96
2018-08-10T12:35:04.742Z,35.03
2018-08-10T12:37:33.944Z,34.65
2018-08-10T12:40:02.866Z,34.79
2018-08-10T12:42:32.147Z,35.14
2018-08-10T12:45:01.452Z,35.52
2018-08-10T12:47:30.317Z,35.68
2018-08-10T12:49:59.506Z,35.66
2018-08-10T12:52:28.543Z,35.29
2018-08-10T12:54:57.481Z,35.54
2018-08-10T12:57:26.923Z,35.61
2018-08-10T12:59:56.366Z,35.52
2018-08-10T13:02:25.454Z,35.17
2018-08-10T13:04:54.367Z,35.74
2018-08-10T13:07:23.622Z,35.81
2018-08-10T13:09:52.536Z,36.05
2018-08-10T13:12:21.315Z,36.46
2018-08-10T13:14:50.608Z,36.60
2018-08-10T13:17:19.538Z,36.33
2018-08-10T13:19:48.324Z,36.00
2018-08-10T13:22:18.215Z,35.72
2018-08-10T13:24:46.946Z,35.07
2018-08-10T13:27:15.888Z,34.84
2018-08-10T13:29:45.465Z,34.78
2018-08-10T13:32:14.451Z,35.13
2018-08-10T13:34:43.200Z,35.51
2018-08-10T13:37:12.167Z,36.13
2018-08-10T13:39:41.071Z,36.11
2018-08-10T13:42:10.177Z,36.57
2018-08-10T13:44:39.017Z,36.50
2018-08-10T13:47:07.933Z,36.53
2018-08-10T13:49:37.131Z,35.88
2018-08-10T13:52:05.827Z,35.56
2018-08-10T13:54:34.560Z,35.68
2018-08-10T13:57:04.098Z,35.72
2018-08-10T13:59:33.296Z,35.38
2018-08-10T14:02:02.240Z,35.26
2018-08-10T14:04:31.406Z,35.07
2018-08-10T14:07:00.554Z,34.53
2018-08-10T14:09:29.614Z,33.65
2018-08-10T14:11:59.061Z,33.31
2018-08-10T14:14:28.211Z,33.79
2018-08-10T14:16:57.470Z,33.75
2018-08-10T14:19:26.913Z,33.98
2018-08-10T14:21:55.657Z,34.40
2018-08-10T14:24:24.512Z,34.67
2018-08-10T14:26:54.232Z,35.29
2018-08-10T14:29:23.175Z,35.13
2018-08-10T14:31:51.963Z,35.33
2018-08-10T14:34:21.287Z,35.18
2018-08-10T14:36:50.308Z,34.31
2018-08-10T14:39:19.396Z,34.65
2018-08-10T14:41:48.735Z,34.67
2018-08-10T14:44:17.500Z,34.79
2018-08-10T14:46:46.363Z,34.92
2018-08-10T14:49:15.191Z,35.00
2018-08-10T14:51:43.972Z,34.09
2018-08-10T14:54:12.727Z,33.74
2018-08-10T14:56:42.034Z,33.22
2018-08-10T14:59:11.001Z,33.17
2018-08-10T15:01:39.999Z,32.84
2018-08-10T15:04:09.077Z,32.83
2018-08-10T15:06:38.119Z,32.92
2018-08-10T15:09:10.864Z,32.77
2018-08-10T15:11:39.906Z,32.14
2018-08-10T15:14:09.250Z,32.02
2018-08-10T15:16:38.216Z,31.37
2018-08-10T15:19:07.249Z,31.58
2018-08-10T15:21:35.990Z,31.07
2018-08-10T15:24:05.046Z,30.95
2018-08-10T15:26:33.734Z,30.49
2018-08-10T15:29:02.920Z,30.46
2018-08-10T15:31:32.570Z,30.27
2018-08-10T15:34:01.709Z,29.89
2018-08-10T15:36:30.765Z,29.93
2018-08-10T15:38:59.924Z,29.90
2018-08-10T15:41:28.993Z,29.92
2018-08-10T15:43:57.757Z,29.76
2018-08-10T15:46:26.831Z,29.99
2018-08-10T15:48:55.899Z,29.82
2018-08-10T15:51:24.649Z,30.19
2018-08-10T15:53:53.845Z,30.53
2018-08-10T15:56:22.735Z,30.34
2018-08-10T15:58:51.367Z,30.55
2018-08-10T16:01:20.447Z,31.15
2018-08-10T16:03:49.327Z,31.70
2018-08-10T16:06:18.278Z,32.27
2018-08-10T16:08:47.652Z,32.89
2018-08-10T16:11:16.825Z,33.53
2018-08-10T16:13:45.915Z,33.85
2018-08-10T16:16:15.382Z,34.39
2018-08-10T16:18:44.467Z,34.58
2018-08-10T16:21:13.380Z,35.03
2018-08-10T16:23:42.421Z,35.33
2018-08-10T16:26:11.186Z,35.49
2018-08-10T16:28:40.211Z,35.48
2018-08-10T16:31:09.491Z,35.58
2018-08-10T16:33:38.507Z,35.63
2018-08-10T16:36:07.653Z,35.34
2018-08-10T16:38:36.832Z,35.37
2018-08-10T16:41:05.782Z,35.10
2018-08-10T16:43:34.893Z,35.53
2018-08-10T16:46:04.245Z,35.08
2018-08-10T16:48:33.171Z,34.72
2018-08-10T16:51:02.082Z,34.81
2018-08-10T16:53:31.393Z,34.73
2018-08-10T16:56:00.147Z,33.72
2018-08-10T16:58:29.051Z,33.91
2018-08-10T17:00:58.175Z,33.47
2018-08-10T17:03:27.343Z,33.20
2018-08-10T17:05:56.456Z,32.90
2018-08-10T17:08:25.909Z,32.72
2018-08-10T17:10:55.181Z,32.41
2018-08-10T17:13:24.430Z,31.72
2018-08-10T17:15:53.689Z,31.69
2018-08-10T17:18:22.767Z,31.32
2018-08-10T17:20:51.591Z,31.01
2018-08-10T17:23:20.363Z,30.69
2018-08-10T17:25:49.331Z,30.27
2018-08-10T17:28:18.345Z,29.96
2018-08-10T17:30:47.515Z,29.41
2018-08-10T17:33:16.506Z,29.03
2018-08-10T17:35:45.591Z,28.99
2018-08-10T17:38:14.551Z,28.53
2018-08-10T17:40:43.619Z,28.35
2018-08-10T17:43:12.779Z,27.89
2018-08-10T17:45:41.961Z,27.78
2018-08-10T17:48:10.902Z,27.43
2018-08-10T17:50:40.205Z,27.27
2018-08-10T17:53:09.395Z,26.97
2018-08-10T17:55:39.009Z,26.66
2018-08-10T17:58:07.915Z,26.45
2018-08-10T18:00:37.218Z,26.31
2018-08-10T18:03:07.100Z,26.20
2018-08-10T18:05:36.024Z,26.05
2018-08-10T18:08:05.141Z,25.74
2018-08-10T18:10:34.434Z,25.78
2018-08-10T18:13:03.311Z,25.68
2018-08-10T18:15:32.518Z,25.63
2018-08-10T18:18:01.344Z,25.51
2018-08-10T18:20:30.126Z,25.37
2018-08-10T18:22:59.008Z,25.30
2018-08-10T18:25:27.708Z,25.24
2018-08-10T18:27:56.975Z,25.12
2018-08-10T18:30:26.413Z,25.08
2018-08-10T18:32:55.492Z,25.03
2018-08-10T18:35:24.444Z,25.00
2018-08-10T18:37:53.857Z,24.91
2018-08-10T18:40:23.009Z,24.78
2018-08-10T18:42:52.045Z,24.38
2018-08-10T18:45:21.902Z,24.64
2018-08-10T18:47:50.694Z,24.47
2018-08-10T18:50:20.254Z,24.48
2018-08-10T18:52:49.295Z,24.43
2018-08-10T18:55:19.846Z,24.37
2018-08-10T18:57:49.399Z,24.26
2018-08-10T19:00:20.894Z,24.18
2018-08-10T19:02:50.178Z,24.13
2018-08-10T19:05:19.353Z,24.00
2018-08-10T19:07:49.020Z,23.99
2018-08-10T19:10:24.305Z,24.06
2018-08-10T19:12:53.034Z,23.98
2018-08-10T19:15:21.974Z,24.09
2018-08-10T19:17:51.067Z,24.01
2018-08-10T19:20:19.847Z,24.04
2018-08-10T19:22:48.746Z,24.06
2018-08-10T19:25:18.583Z,23.83
2018-08-10T19:27:47.764Z,23.71
2018-08-10T19:30:20.025Z,23.66
2018-08-10T19:32:49.335Z,23.59
2018-08-10T19:35:18.857Z,23.65
2018-08-10T19:37:47.776Z,23.48
2018-08-10T19:40:18.121Z,23.64
2018-08-10T19:42:47.312Z,23.62
2018-08-10T19:45:17.211Z,23.49
2018-08-10T19:47:46.005Z,23.44
2018-08-10T19:50:16.390Z,23.43
2018-08-10T19:52:45.144Z,23.34
2018-08-10T19:55:15.245Z,23.57
2018-08-10T19:57:44.188Z,23.37
2018-08-10T20:00:15.845Z,23.17
2018-08-10T20:02:46.806Z,23.20
2018-08-10T20:05:16.123Z,23.13
2018-08-10T20:07:45.400Z,23.10
2018-08-10T20:10:15.098Z,23.09
2018-08-10T20:12:44.295Z,23.12
2018-08-10T20:15:14.838Z,23.01
2018-08-10T20:17:43.632Z,23.08
2018-08-10T20:20:15.309Z,22.98
2018-08-10T20:22:44.355Z,22.94
2018-08-10T20:25:13.939Z,23.01
2018-08-10T20:27:43.191Z,22.99
2018-08-10T20:30:13.826Z,22.95
2018-08-10T20:32:43.237Z,22.98
2018-08-10T20:35:15.129Z,23.00
2018-08-10T20:37:44.311Z,22.94
2018-08-10T20:40:15.846Z,22.96
2018-08-10T20:42:45.059Z,22.85
2018-08-10T20:45:14.279Z,22.77
2018-08-10T20:47:43.212Z,22.92
2018-08-10T20:50:15.586Z,22.85
2018-08-10T20:52:45.453Z,22.82
2018-08-10T20:55:14.298Z,22.87
2018-08-10T20:57:44.075Z,22.70
2018-08-10T21:00:13.217Z,22.69
2018-08-10T21:02:43.641Z,22.60
2018-08-10T21:05:13.541Z,22.68
2018-08-10T21:07:42.475Z,22.72
2018-08-10T21:10:13.113Z,22.62
2018-08-10T21:12:42.591Z,22.55
2018-08-10T21:15:12.754Z,22.59
2018-08-10T21:17:42.486Z,22.69
2018-08-10T21:20:13.259Z,22.58
2018-08-10T21:22:42.399Z,22.62
2018-08-10T21:25:12.605Z,22.40
2018-08-10T21:30:21.343Z,22.38
2018-08-10T21:32:50.499Z,22.55
2018-08-10T21:35:19.527Z,22.48
2018-08-10T21:37:48.736Z,22.58
2018-08-10T21:40:17.607Z,22.33
2018-08-10T21:42:46.486Z,22.30
2018-08-10T21:45:15.215Z,22.35
2018-08-10T21:47:44.140Z,22.22
2018-08-10T21:50:14.275Z,22.23
2018-08-10T21:52:44.320Z,22.34
2018-08-10T21:55:13.216Z,22.15
2018-08-10T21:57:42.414Z,22.21
2018-08-10T22:00:57.080Z,22.21
2018-08-10T22:03:25.864Z,22.03
2018-08-10T22:05:54.759Z,22.18
2018-08-10T22:08:24.732Z,22.08
2018-08-10T22:10:53.753Z,22.12
2018-08-10T22:13:28.296Z,22.13
2018-08-10T22:16:02.253Z,22.09
2018-08-10T22:18:36.391Z,22.14
2018-08-10T22:21:05.288Z,22.15
2018-08-10T22:23:34.067Z,22.11
2018-08-10T22:26:03.371Z,21.90
2018-08-10T22:28:32.508Z,22.00
2018-08-10T22:31:01.422Z,21.92
2018-08-10T22:33:30.366Z,22.00
2018-08-10T22:35:59.273Z,21.97
2018-08-10T22:38:28.468Z,21.90
2018-08-10T22:40:57.181Z,21.83
2018-08-10T22:43:26.124Z,21.87
2018-08-10T22:45:54.819Z,21.67
2018-08-10T22:48:23.912Z,21.70
2018-08-10T22:50:52.568Z,21.59
2018-08-10T22:53:21.494Z,21.81
2018-08-10T22:55:50.624Z,21.71
2018-08-10T22:58:19.378Z,21.55
2018-08-10T23:00:48.455Z,21.44
2018-08-10T23:03:17.707Z,21.43
2018-08-10T23:05:46.325Z,21.40
2018-08-10T23:08:15.465Z,21.35
2018-08-10T23:10:44.777Z,21.37
2018-08-10T23:13:13.687Z,21.33
2018-08-10T23:15:42.414Z,21.27
2018-08-10T23:18:11.394Z,21.27
2018-08-10T23:20:40.043Z,21.14
2018-08-10T23:23:08.927Z,21.26
2018-08-10T23:25:38.186Z,21.33
2018-08-10T23:28:07.357Z,21.27
2018-08-10T23:30:36.433Z,21.16
2018-08-10T23:33:05.579Z,21.08
2018-08-10T23:35:34.595Z,20.98
2018-08-10T23:38:03.432Z,21.03
2018-08-10T23:40:32.541Z,20.89
2018-08-10T23:43:01.383Z,20.77
2018-08-10T23:45:30.163Z,20.78
2018-08-10T23:47:59.065Z,20.71
2018-08-10T23:50:28.188Z,20.65
2018-08-10T23:52:57.105Z,20.65
2018-08-10T23:55:26.285Z,20.68
2018-08-10T23:57:55.239Z,20.62
